Time;durP1;ratioP1;P1;durP2;ratioP2;P2;SDS_P1;SDS_P2;PMS_P1;PMS_P2;Temp;Humidity;BMP_temperature;BMP_pressure;BME280_temperature;BME280_humidity;BME280_pressure;Samples;Min_cycle;Max_cycle;Signal;HPM_P1;HPM_P2
2021/01/08 00:01:54;;;;;;;23.88;12.43;;;0.70;97.20;;;;;;6225175;23;20099;-85
2021/01/08 00:04:21;;;;;;;27.45;14.15;;;0.70;97.50;;;;;;6199920;23;20362;-85
2021/01/08 00:06:47;;;;;;;23.63;12.10;;;0.70;97.70;;;;;;6199378;23;20012;-86
2021/01/08 00:09:13;;;;;;;25.98;13.57;;;0.70;97.50;;;;;;6198612;23;20000;-85
2021/01/08 00:11:39;;;;;;;24.48;13.38;;;0.70;97.40;;;;;;6224177;23;19997;-85
2021/01/08 00:14:05;;;;;;;23.90;12.73;;;0.70;97.20;;;;;;6195901;23;20005;-88
2021/01/08 00:16:36;;;;;;;22.95;12.50;;;0.70;97.10;;;;;;6198467;23;20023;-85
2021/01/08 00:19:03;;;;;;;21.80;12.43;;;0.70;97.30;;;;;;6195915;23;20016;-84
2021/01/08 00:21:42;;;;;;;26.33;13.13;;;0.80;97.40;;;;;;6195895;23;20047;-86
2021/01/08 00:24:11;;;;;;;24.58;13.25;;;0.80;97.40;;;;;;6199548;23;20009;-85
2021/01/08 00:26:39;;;;;;;20.98;12.63;;;0.80;97.30;;;;;;6222993;23;20020;-84
2021/01/08 00:29:12;;;;;;;25.10;12.60;;;0.80;97.30;;;;;;6195918;23;20016;-86
2021/01/08 00:31:43;;;;;;;24.73;13.63;;;0.80;97.20;;;;;;6196376;23;20344;-85
2021/01/08 00:34:12;;;;;;;23.35;12.95;;;0.70;97.30;;;;;;6222040;23;20012;-85
2021/01/08 00:36:56;;;;;;;22.67;11.90;;;0.80;97.30;;;;;;6196077;23;20001;-85
2021/01/08 00:39:22;;;;;;;25.13;13.27;;;0.70;97.30;;;;;;6196405;23;20020;-87
2021/01/08 00:41:54;;;;;;;22.90;12.65;;;0.70;97.20;;;;;;6195876;23;20040;-86
2021/01/08 00:44:20;;;;;;;26.55;13.63;;;0.70;97.20;;;;;;6201239;23;20015;-87
2021/01/08 00:47:13;;;;;;;23.85;12.43;;;0.70;97.30;;;;;;6229671;23;20045;-86
2021/01/08 00:49:44;;;;;;;24.80;13.13;;;0.70;97.00;;;;;;6196069;23;19996;-87
2021/01/08 00:52:13;;;;;;;24.15;13.13;;;0.70;97.00;;;;;;6197023;23;20023;-85
2021/01/08 00:54:42;;;;;;;22.65;13.02;;;0.60;96.70;;;;;;6199171;23;20017;-85
2021/01/08 00:57:20;;;;;;;21.05;12.20;;;0.60;96.80;;;;;;6197100;23;20000;-85
2021/01/08 00:59:52;;;;;;;27.38;12.90;;;0.60;97.00;;;;;;6224799;23;19993;-86
2021/01/08 01:05:13;;;;;;;24.20;13.50;;;0.60;97.10;;;;;;6207833;23;20001;-87
2021/01/08 01:07:39;;;;;;;25.67;13.13;;;0.60;97.10;;;;;;6193585;23;20001;-83
2021/01/08 01:10:05;;;;;;;25.42;13.52;;;0.60;96.80;;;;;;6194853;23;20447;-85
2021/01/08 01:12:36;;;;;;;20.75;11.07;;;0.60;97.00;;;;;;6197153;23;19989;-85
2021/01/08 01:15:06;;;;;;;21.02;11.70;;;0.60;97.10;;;;;;6221974;23;20000;-86
2021/01/08 07:28:49;;;;;;;16.02;8.55;;;0.30;97.50;;;;;;6218796;22;20039;-85
2021/01/08 07:31:15;;;;;;;15.30;9.15;;;0.30;97.40;;;;;;6196421;23;20126;-84
2021/01/08 07:33:47;;;;;;;12.65;7.72;;;0.30;97.60;;;;;;6222807;23;20108;-85
2021/01/08 07:36:24;;;;;;;16.30;8.70;;;0.40;97.80;;;;;;6220678;23;20024;-84
2021/01/08 07:38:50;;;;;;;17.42;9.25;;;0.30;97.70;;;;;;6219219;23;20169;-84
2021/01/08 07:41:39;;;;;;;15.75;9.43;;;0.40;97.40;;;;;;6218362;23;20020;-84
2021/01/08 07:44:33;;;;;;;17.88;9.52;;;0.30;97.40;;;;;;6194024;23;20063;-82
2021/01/08 07:47:24;;;;;;;15.68;8.50;;;0.30;97.70;;;;;;6220321;23;20001;-81
2021/01/08 07:50:14;;;;;;;14.13;8.57;;;0.40;97.60;;;;;;6222667;23;20004;-84
2021/01/08 07:52:42;;;;;;;15.77;9.45;;;0.40;97.50;;;;;;6200045;23;20328;-82
2021/01/08 07:55:10;;;;;;;17.88;9.43;;;0.40;97.40;;;;;;6198261;23;20001;-82
2021/01/08 07:58:12;;;;;;;18.20;10.27;;;0.40;97.40;;;;;;6195751;23;20000;-83
2021/01/08 08:00:41;;;;;;;18.23;9.55;;;0.50;97.30;;;;;;6127598;23;20022;-82
2021/01/08 08:03:12;;;;;;;19.85;10.60;;;0.50;96.80;;;;;;6201827;23;20086;-82
2021/01/08 08:05:38;;;;;;;17.75;9.68;;;0.50;96.70;;;;;;6197244;23;20001;-83
2021/01/08 08:08:05;;;;;;;20.90;10.00;;;0.50;96.70;;;;;;6193306;23;20047;-83
2021/01/08 08:10:31;;;;;;;18.95;10.02;;;0.60;96.50;;;;;;6192755;23;20050;-81
2021/01/08 08:12:58;;;;;;;17.00;9.43;;;0.60;96.10;;;;;;6218859;23;20001;-82
2021/01/08 08:15:24;;;;;;;18.27;10.88;;;0.60;95.90;;;;;;6220192;23;20091;-82
2021/01/08 08:17:50;;;;;;;20.23;11.25;;;0.60;96.30;;;;;;6192961;23;20078;-81
2021/01/08 08:20:23;;;;;;;16.85;9.88;;;0.60;96.10;;;;;;6220113;23;20539;-81
2021/01/08 08:22:53;;;;;;;18.70;11.27;;;0.60;96.50;;;;;;6191110;23;20096;-82
2021/01/08 08:25:31;;;;;;;21.50;11.40;;;0.60;96.00;;;;;;6218858;23;19997;-82
2021/01/08 08:28:00;;;;;;;18.65;10.35;;;0.60;96.00;;;;;;6222309;23;19997;-83
2021/01/08 08:30:28;;;;;;;17.98;10.68;;;0.70;96.00;;;;;;6224994;23;20035;-82
2021/01/08 08:32:54;;;;;;;15.50;9.68;;;0.90;95.50;;;;;;6225473;23;20028;-84
2021/01/08 08:35:21;;;;;;;20.60;11.27;;;1.00;95.20;;;;;;6220112;23;20036;-84
2021/01/08 08:37:50;;;;;;;20.85;11.88;;;1.10;94.70;;;;;;6219235;23;20079;-83
2021/01/08 08:40:16;;;;;;;21.92;11.10;;;1.20;93.80;;;;;;6193988;23;20068;-82
2021/01/08 08:42:47;;;;;;;20.95;12.15;;;1.10;93.90;;;;;;6218235;23;20011;-84
2021/01/08 08:45:35;;;;;;;20.75;10.82;;;1.20;94.50;;;;;;6192192;23;20060;-83
2021/01/08 08:48:06;;;;;;;18.33;11.35;;;1.30;93.70;;;;;;6191503;23;20011;-82
2021/01/08 08:50:42;;;;;;;18.55;10.15;;;1.30;93.00;;;;;;6191791;23;20005;-83
2021/01/08 08:53:12;;;;;;;19.83;11.00;;;1.20;92.70;;;;;;6192477;23;20031;-82
2021/01/08 08:55:37;;;;;;;20.63;10.98;;;1.30;92.70;;;;;;6193382;23;20011;-83
2021/01/08 08:58:11;;;;;;;22.23;11.55;;;1.30;92.70;;;;;;6197532;23;20083;-81
2021/01/08 09:00:42;;;;;;;17.30;9.75;;;1.30;92.10;;;;;;6192689;23;20090;-82
2021/01/08 09:03:26;;;;;;;18.33;10.60;;;1.30;91.70;;;;;;6219391;23;20047;-83
2021/01/08 09:05:52;;;;;;;33.55;14.50;;;1.30;91.90;;;;;;6192955;23;20005;-83
2021/01/08 09:08:27;;;;;;;17.25;10.65;;;1.40;92.10;;;;;;6192744;23;20012;-83
2021/01/08 09:10:58;;;;;;;18.35;10.63;;;1.40;92.00;;;;;;6193273;23;20000;-82
2021/01/08 09:13:29;;;;;;;17.40;10.43;;;1.30;91.90;;;;;;6192179;23;20408;-83
2021/01/08 09:16:16;;;;;;;19.17;11.20;;;1.30;92.40;;;;;;6195043;23;20066;-83
2021/01/08 09:19:05;;;;;;;19.58;10.95;;;1.30;91.90;;;;;;6236640;23;20044;-84
2021/01/08 09:21:51;;;;;;;16.23;9.77;;;1.30;92.20;;;;;;6207419;23;20016;-84
2021/01/08 09:24:31;;;;;;;17.10;9.68;;;1.40;92.10;;;;;;6195403;23;20011;-84
2021/01/08 09:27:12;;;;;;;19.20;10.02;;;1.50;91.70;;;;;;6194249;23;20028;-82
2021/01/08 09:29:38;;;;;;;16.45;9.00;;;1.50;91.30;;;;;;6197256;23;20108;-83
2021/01/08 09:32:06;;;;;;;15.70;9.18;;;1.70;91.20;;;;;;6220154;23;20012;-83
2021/01/08 09:34:32;;;;;;;14.77;8.68;;;1.70;90.70;;;;;;6195491;23;20017;-83
2021/01/08 09:37:10;;;;;;;19.55;9.23;;;1.80;90.20;;;;;;6197959;23;20015;-84
2021/01/08 09:39:39;;;;;;;13.90;8.55;;;1.80;89.70;;;;;;6237504;22;19984;-83
2021/01/08 09:42:06;;;;;;;15.00;8.25;;;1.80;89.80;;;;;;6212795;23;20020;-83
2021/01/08 09:44:36;;;;;;;16.45;8.85;;;1.80;89.70;;;;;;6197879;23;20055;-82
2021/01/08 09:47:04;;;;;;;16.58;9.35;;;1.90;90.10;;;;;;6191371;23;20003;-83
2021/01/08 09:49:40;;;;;;;16.48;8.93;;;1.90;89.50;;;;;;6218769;23;20001;-84
2021/01/08 09:52:06;;;;;;;14.38;8.70;;;1.90;89.00;;;;;;6193575;23;19996;-83
2021/01/08 09:54:50;;;;;;;16.15;8.70;;;1.80;89.30;;;;;;6219075;23;20005;-83
2021/01/08 09:57:29;;;;;;;14.48;9.05;;;1.80;90.10;;;;;;6194054;23;20379;-83
2021/01/08 10:00:01;;;;;;;17.02;9.70;;;1.90;90.20;;;;;;6193665;23;20005;-83
2021/01/08 10:02:38;;;;;;;17.10;9.63;;;2.00;88.40;;;;;;6194500;23;20068;-82
2021/01/08 10:05:25;;;;;;;15.95;9.63;;;2.00;87.40;;;;;;6197627;23;20005;-85
2021/01/08 10:07:51;;;;;;;15.95;8.68;;;1.90;87.80;;;;;;6194320;23;20004;-82
2021/01/08 10:10:38;;;;;;;16.90;9.93;;;1.90;88.70;;;;;;6193403;23;20095;-83
2021/01/08 10:13:07;;;;;;;16.67;8.93;;;2.00;88.80;;;;;;6194021;23;20405;-83
2021/01/08 10:15:37;;;;;;;15.23;8.70;;;;;;;;;;6194336;23;20015;-82
2021/01/08 10:18:12;;;;;;;17.48;9.50;;;2.00;86.70;;;;;;6221663;23;20011;-84
2021/01/08 10:20:43;;;;;;;13.68;8.18;;;2.10;86.90;;;;;;6221114;23;20004;-82
2021/01/08 10:23:10;;;;;;;13.93;9.13;;;2.00;87.70;;;;;;6219711;23;20397;-83
2021/01/08 10:25:36;;;;;;;17.83;8.50;;;2.10;88.40;;;;;;6194533;23;20001;-83
2021/01/08 10:28:20;;;;;;;12.40;7.45;;;2.30;87.30;;;;;;6192615;23;20132;-82
2021/01/08 10:30:48;;;;;;;15.60;9.48;;;2.50;87.50;;;;;;6220379;23;20005;-87
2021/01/08 10:33:14;;;;;;;15.05;9.38;;;2.60;86.20;;;;;;6198193;23;20004;-82
2021/01/08 10:35:48;;;;;;;14.88;7.82;;;2.60;84.90;;;;;;6193030;23;20065;-84
2021/01/08 10:38:14;;;;;;;13.13;7.93;;;2.70;84.80;;;;;;6192777;23;20092;-84
2021/01/08 10:40:43;;;;;;;15.85;8.65;;;2.50;83.20;;;;;;6220922;23;20005;-83
2021/01/08 10:43:09;;;;;;;15.90;8.85;;;2.40;84.90;;;;;;6219462;23;20408;-84
2021/01/08 10:45:35;;;;;;;14.10;8.57;;;2.70;88.30;;;;;;6193333;23;20005;-85
2021/01/08 10:48:01;;;;;;;14.23;8.25;;;2.60;84.10;;;;;;6193955;23;20020;-84
2021/01/08 10:50:26;;;;;;;13.57;8.32;;;2.70;82.80;;;;;;6193739;23;20345;-84
2021/01/08 10:52:52;;;;;;;14.15;8.32;;;;;;;;;;6196593;23;20005;-84
2021/01/08 10:55:18;;;;;;;12.68;7.93;;;2.60;81.20;;;;;;6221206;23;20011;-85
2021/01/08 10:57:44;;;;;;;13.25;8.23;;;2.30;82.40;;;;;;6194672;23;20083;-85
2021/01/08 11:00:11;;;;;;;13.05;8.18;;;2.20;83.50;;;;;;6222295;23;20012;-85
2021/01/08 11:02:37;;;;;;;15.73;9.23;;;2.30;83.10;;;;;;6195349;23;20024;-85
2021/01/08 11:05:06;;;;;;;13.50;8.57;;;2.40;82.20;;;;;;6196346;23;20043;-84
2021/01/08 11:07:35;;;;;;;14.30;7.50;;;2.40;85.90;;;;;;6194382;23;20009;-84
2021/01/08 11:10:02;;;;;;;16.40;9.15;;;2.10;83.80;;;;;;6226337;23;20031;-86
2021/01/08 11:12:28;;;;;;;14.20;8.48;;;2.10;86.80;;;;;;6227322;23;20006;-85
2021/01/08 11:14:55;;;;;;;14.02;8.27;;;2.50;90.30;;;;;;6198852;23;19997;-85
2021/01/08 11:17:21;;;;;;;13.52;7.97;;;;;;;;;;6194218;23;20079;-84
2021/01/08 11:19:47;;;;;;;14.32;8.00;;;2.60;83.10;;;;;;6219431;23;20060;-83
2021/01/08 11:22:13;;;;;;;14.38;8.45;;;2.80;82.20;;;;;;6195131;23;20055;-84
2021/01/08 11:24:39;;;;;;;15.88;9.27;;;3.00;80.60;;;;;;6194446;23;20008;-83
2021/01/08 11:27:06;;;;;;;15.18;8.98;;;3.00;79.40;;;;;;6220135;23;20000;-84
2021/01/08 11:29:32;;;;;;;12.30;7.20;;;2.90;80.00;;;;;;6195013;23;20009;-84
2021/01/08 11:31:57;;;;;;;12.55;7.72;;;2.90;79.30;;;;;;6193923;23;20109;-84
2021/01/08 11:34:23;;;;;;;15.30;8.02;;;3.00;78.70;;;;;;6194003;23;20009;-84
2021/01/08 11:36:54;;;;;;;11.65;6.65;;;2.70;79.70;;;;;;6194133;23;20004;-83
2021/01/08 11:39:20;;;;;;;10.73;6.78;;;2.90;79.50;;;;;;6193348;23;20079;-84
2021/01/08 11:41:45;;;;;;;9.85;6.45;;;2.90;78.40;;;;;;6222120;23;20012;-83
2021/01/08 11:44:11;;;;;;;11.13;6.15;;;3.00;77.60;;;;;;6196733;23;20004;-82
2021/01/08 11:46:36;;;;;;;10.57;6.78;;;3.20;77.40;;;;;;6193271;23;20005;-83
2021/01/08 11:49:02;;;;;;;12.07;6.88;;;3.20;76.60;;;;;;6195370;23;20032;-83
2021/01/08 11:51:28;;;;;;;11.75;7.32;;;3.30;75.50;;;;;;6197739;23;20008;-84
2021/01/08 11:53:54;;;;;;;10.68;6.43;;;3.30;75.40;;;;;;6220912;23;20008;-83
2021/01/08 11:56:32;;;;;;;10.30;6.18;;;3.20;74.90;;;;;;6195106;23;20008;-85
2021/01/08 11:58:58;;;;;;;11.15;6.80;;;3.30;74.10;;;;;;6195382;23;20031;-84
2021/01/08 12:01:27;;;;;;;10.55;5.95;;;;;;;;;;6194040;23;20351;-84
2021/01/08 12:03:54;;;;;;;9.43;6.18;;;2.90;95.50;;;;;;6218445;23;20016;-85
2021/01/08 12:06:33;;;;;;;13.40;7.53;;;2.90;75.40;;;;;;6222201;23;20001;-83
2021/01/08 12:09:00;;;;;;;10.65;6.70;;;3.00;74.80;;;;;;6221344;23;20004;-84
2021/01/08 12:11:27;;;;;;;8.57;5.93;;;3.30;74.00;;;;;;6220961;23;20016;-85
2021/01/08 12:13:53;;;;;;;8.95;5.57;;;3.30;73.50;;;;;;6194743;23;20004;-84
2021/01/08 12:16:28;;;;;;;11.05;6.50;;;3.30;72.50;;;;;;6193183;23;20368;-83
2021/01/08 12:18:55;;;;;;;10.93;6.05;;;3.40;73.00;;;;;;6195228;23;20082;-84
2021/01/08 12:21:22;;;;;;;10.20;6.47;;;3.40;73.60;;;;;;6222223;23;20005;-84
2021/01/08 12:23:55;;;;;;;10.00;6.30;;;3.30;74.00;;;;;;6194171;23;20019;-86
2021/01/08 12:26:22;;;;;;;9.63;5.57;;;;;;;;;;6198923;23;20083;-87
2021/01/08 12:28:51;;;;;;;9.63;6.07;;;3.10;74.30;;;;;;6220915;23;20008;-84
2021/01/08 12:31:25;;;;;;;10.13;6.78;;;3.00;75.50;;;;;;6199299;23;20015;-84
2021/01/08 12:33:52;;;;;;;12.70;6.97;;;2.80;75.60;;;;;;6208445;23;20031;-85
2021/01/08 12:36:18;;;;;;;11.75;6.80;;;2.60;77.20;;;;;;6207362;23;20016;-86
2021/01/08 12:38:44;;;;;;;11.60;6.53;;;2.40;78.70;;;;;;6239821;22;20044;-87
2021/01/08 12:41:09;;;;;;;11.07;7.07;;;2.30;79.10;;;;;;6231488;22;20012;-84
2021/01/08 12:43:35;;;;;;;11.20;7.47;;;2.30;79.10;;;;;;6195513;23;20024;-86
2021/01/08 12:46:01;;;;;;;12.23;7.35;;;2.20;79.40;;;;;;6224295;23;20020;-84
2021/01/08 12:48:26;;;;;;;10.27;6.00;;;2.20;79.10;;;;;;6198173;23;20028;-85
2021/01/08 12:50:52;;;;;;;11.25;6.50;;;2.20;79.60;;;;;;6200923;23;20004;-85
2021/01/08 12:53:18;;;;;;;9.48;6.63;;;2.00;79.90;;;;;;6201835;23;20011;-83
2021/01/08 12:55:46;;;;;;;9.50;5.30;;;1.90;80.20;;;;;;6229936;23;20001;-85
2021/01/08 12:58:12;;;;;;;13.23;6.22;;;1.90;80.10;;;;;;6229020;23;20000;-84
2021/01/08 13:00:37;;;;;;;11.75;6.57;;;1.90;80.50;;;;;;6197206;23;20011;-83
2021/01/08 13:03:03;;;;;;;11.05;6.78;;;1.90;80.70;;;;;;6196665;23;20087;-83
2021/01/08 13:05:29;;;;;;;12.25;7.03;;;1.80;81.50;;;;;;6223691;23;20329;-86
2021/01/08 13:07:55;;;;;;;9.27;5.95;;;1.90;83.00;;;;;;6198357;23;20413;-84
2021/01/08 13:10:21;;;;;;;11.20;6.10;;;1.90;82.00;;;;;;6223863;23;20016;-84
2021/01/08 13:12:47;;;;;;;12.52;6.63;;;1.90;82.80;;;;;;6223242;23;20008;-84
2021/01/08 13:15:13;;;;;;;8.82;5.63;;;1.90;82.00;;;;;;6199312;23;20015;-83
2021/01/08 13:17:39;;;;;;;9.90;5.75;;;2.00;82.30;;;;;;6196727;23;20368;-85
2021/01/08 13:20:06;;;;;;;12.15;5.70;;;1.90;82.60;;;;;;6195669;23;20005;-83
2021/01/08 13:22:36;;;;;;;10.70;5.88;;;2.00;82.20;;;;;;6206659;23;20067;-85
2021/01/08 13:25:28;;;;;;;8.45;5.10;;;2.00;82.50;;;;;;6212027;23;19989;-87
2021/01/08 13:28:52;;;;;;;11.13;6.43;;;2.00;81.50;;;;;;6177413;23;20008;-86
2021/01/08 13:31:38;;;;;;;9.50;6.03;;;2.10;81.90;;;;;;6138514;23;20436;-86
2021/01/08 13:34:03;;;;;;;10.75;5.78;;;2.00;83.00;;;;;;6223617;23;20011;-84
2021/01/08 13:37:13;;;;;;;10.57;5.63;;;1.90;82.80;;;;;;6222226;23;20005;-85
2021/01/08 13:39:39;;;;;;;10.63;5.82;;;1.80;83.40;;;;;;6164602;23;20001;-83
2021/01/08 13:42:10;;;;;;;12.13;6.20;;;1.80;83.70;;;;;;6220586;23;20036;-86
2021/01/08 13:44:36;;;;;;;10.27;6.30;;;1.70;84.40;;;;;;6176268;23;20015;-84
2021/01/08 13:47:04;;;;;;;9.05;5.50;;;1.60;84.50;;;;;;6195715;23;20492;-87
2021/01/08 13:49:36;;;;;;;9.32;5.55;;;1.60;85.40;;;;;;6196333;23;20001;-84
2021/01/08 13:52:08;;;;;;;10.35;6.43;;;1.60;85.30;;;;;;6199352;23;20028;-89
2021/01/08 13:54:33;;;;;;;12.43;6.15;;;1.60;85.00;;;;;;6197257;23;20111;-89
2021/01/08 13:56:59;;;;;;;10.40;5.88;;;1.60;85.00;;;;;;6195557;23;20020;-86
2021/01/08 13:59:25;;;;;;;16.30;5.97;;;1.70;84.40;;;;;;6193534;23;20168;-87
2021/01/08 14:01:51;;;;;;;10.25;6.07;;;1.70;85.60;;;;;;6204302;23;19993;-87
2021/01/08 14:04:16;;;;;;;10.13;6.07;;;1.80;85.60;;;;;;6209458;23;20004;-85
2021/01/08 14:06:43;;;;;;;9.85;6.30;;;1.80;84.30;;;;;;6209111;23;20031;-86
2021/01/08 14:09:12;;;;;;;10.38;6.20;;;1.70;84.30;;;;;;6210459;23;20013;-86
2021/01/08 14:11:40;;;;;;;9.80;6.45;;;1.60;84.80;;;;;;6207674;23;20005;-85
2021/01/08 14:14:08;;;;;;;10.57;5.78;;;1.50;85.90;;;;;;6207107;23;20015;-87
2021/01/08 14:16:34;;;;;;;9.13;5.70;;;1.60;85.50;;;;;;6207358;23;20001;-87
2021/01/08 14:19:01;;;;;;;9.45;6.05;;;1.60;84.70;;;;;;6206905;23;20222;-88
2021/01/08 14:21:33;;;;;;;11.40;6.35;;;1.50;85.10;;;;;;6208906;23;19988;-87
2021/01/08 14:23:59;;;;;;;;;;;1.60;85.00;;;;;;6201067;23;20012;-87
2021/01/08 14:26:26;;;;;;;8.70;5.10;;;1.60;84.60;;;;;;6218783;23;20249;-86
2021/01/08 14:28:52;;;;;;;8.98;5.53;;;1.50;85.00;;;;;;6192156;23;20016;-85
2021/01/08 14:31:32;;;;;;;8.82;5.68;;;1.60;85.00;;;;;;6219549;23;20007;-86
2021/01/08 14:34:00;;;;;;;8.50;5.57;;;1.60;84.20;;;;;;6193202;23;20009;-87
2021/01/08 14:36:30;;;;;;;9.23;5.38;;;1.60;85.00;;;;;;6220307;23;20005;-86
2021/01/08 14:38:56;;;;;;;9.55;6.10;;;1.60;85.10;;;;;;6228209;23;20063;-89
2021/01/08 14:41:23;;;;;;;13.73;5.70;;;1.50;84.60;;;;;;6229194;23;20047;-86
2021/01/08 14:43:49;;;;;;;11.38;5.68;;;1.50;84.90;;;;;;6204573;23;20005;-83
2021/01/08 14:46:16;;;;;;;11.88;6.20;;;1.40;85.20;;;;;;6230312;23;20024;-87
2021/01/08 14:48:43;;;;;;;10.93;6.13;;;1.40;85.60;;;;;;6224970;23;20004;-87
2021/01/08 14:51:09;;;;;;;12.80;5.70;;;1.40;85.20;;;;;;6194432;23;20040;-84
2021/01/08 14:53:36;;;;;;;13.50;6.00;;;1.40;85.90;;;;;;6195063;23;20005;-83
2021/01/08 14:56:09;;;;;;;10.15;5.80;;;1.50;85.40;;;;;;6193218;23;20044;-85
2021/01/08 14:58:36;;;;;;;12.93;6.93;;;1.40;85.50;;;;;;6219939;23;20382;-84
2021/01/08 15:01:03;;;;;;;10.10;6.28;;;1.40;85.50;;;;;;6195161;23;20012;-86
2021/01/08 15:03:29;;;;;;;9.07;5.70;;;1.40;85.50;;;;;;6219969;23;20377;-85
2021/01/08 15:05:55;;;;;;;11.10;6.18;;;1.40;85.50;;;;;;6194015;23;20107;-84
2021/01/08 15:08:21;;;;;;;9.88;5.63;;;1.30;86.10;;;;;;6194144;23;20083;-85
2021/01/08 15:10:58;;;;;;;9.60;6.30;;;1.30;85.60;;;;;;6193494;23;20001;-85
2021/01/08 15:13:24;;;;;;;11.43;6.28;;;1.30;85.70;;;;;;6192667;23;20007;-85
2021/01/08 15:15:50;;;;;;;10.02;5.80;;;1.30;86.20;;;;;;6195815;23;20000;-85
2021/01/08 15:18:16;;;;;;;9.48;5.80;;;1.20;86.60;;;;;;6193664;23;20032;-85
2021/01/08 15:20:59;;;;;;;10.20;5.63;;;1.20;87.00;;;;;;6195478;23;20035;-84
2021/01/08 15:23:26;;;;;;;13.68;6.20;;;1.20;87.30;;;;;;6194121;23;20038;-85
2021/01/08 15:25:52;;;;;;;7.75;5.25;;;1.20;87.20;;;;;;6192747;23;20004;-83
2021/01/08 15:28:18;;;;;;;14.55;6.57;;;1.20;87.80;;;;;;6192764;23;20023;-85
2021/01/08 15:30:48;;;;;;;9.73;6.03;;;1.20;87.60;;;;;;6193985;23;20405;-83
2021/01/08 15:33:14;;;;;;;9.98;6.10;;;1.10;87.50;;;;;;6221764;23;20019;-86
2021/01/08 15:35:39;;;;;;;9.80;6.55;;;1.10;87.80;;;;;;6241604;22;20050;-82
2021/01/08 15:38:08;;;;;;;10.90;6.07;;;1.00;87.90;;;;;;6209675;23;20009;-83
2021/01/08 15:40:35;;;;;;;14.07;6.68;;;0.90;87.40;;;;;;6200853;23;20033;-83
2021/01/08 15:43:01;;;;;;;12.32;6.18;;;0.90;87.50;;;;;;6201285;23;20035;-84
2021/01/08 15:45:27;;;;;;;9.77;5.95;;;0.90;87.70;;;;;;6231675;23;19997;-86
2021/01/08 15:47:53;;;;;;;8.82;5.22;;;0.80;87.40;;;;;;6212337;23;19999;-83
2021/01/08 15:50:19;;;;;;;10.27;5.65;;;0.90;87.40;;;;;;6212586;23;20000;-81
2021/01/08 15:52:45;;;;;;;11.70;6.18;;;0.80;86.70;;;;;;6233848;23;20267;-81
2021/01/08 15:55:17;;;;;;;10.65;6.00;;;0.80;86.70;;;;;;6198694;23;20013;-82
2021/01/08 15:57:42;;;;;;;8.52;4.75;;;0.80;87.00;;;;;;6194425;23;20165;-83
2021/01/08 16:00:09;;;;;;;10.80;6.18;;;0.80;87.60;;;;;;6201203;23;20016;-82
2021/01/08 16:02:36;;;;;;;17.10;6.60;;;0.80;87.60;;;;;;6206289;23;20004;-84
2021/01/08 16:05:05;;;;;;;10.18;6.45;;;0.80;87.40;;;;;;6194395;23;20091;-82
2021/01/08 16:07:31;;;;;;;9.40;5.68;;;0.80;87.00;;;;;;6190224;23;20008;-81
2021/01/08 16:09:56;;;;;;;10.60;5.53;;;0.90;87.40;;;;;;6190136;23;19997;-82
2021/01/08 16:12:24;;;;;;;11.63;6.40;;;0.80;87.30;;;;;;6191649;23;20001;-81
2021/01/08 16:14:50;;;;;;;10.82;5.57;;;0.90;87.50;;;;;;6191554;23;20428;-80
2021/01/08 16:17:16;;;;;;;15.18;6.05;;;0.90;87.20;;;;;;6217130;23;20020;-82
2021/01/08 16:19:41;;;;;;;9.63;5.68;;;0.90;87.90;;;;;;6217136;23;20008;-83
2021/01/08 16:22:07;;;;;;;11.55;6.75;;;1.00;87.90;;;;;;6189922;23;20008;-84
2021/01/08 16:24:33;;;;;;;14.25;6.20;;;1.00;87.70;;;;;;6190999;23;20062;-82
2021/01/08 16:26:58;;;;;;;10.60;6.22;;;0.90;87.20;;;;;;6193790;23;20008;-81
2021/01/08 16:29:24;;;;;;;12.73;6.53;;;0.90;87.10;;;;;;6218979;23;19992;-81
2021/01/08 16:31:52;;;;;;;15.60;7.10;;;0.90;87.50;;;;;;6218925;23;20012;-81
2021/01/08 16:34:19;;;;;;;10.82;5.80;;;0.90;87.20;;;;;;6192112;23;20008;-83
2021/01/08 16:36:45;;;;;;;9.35;5.68;;;0.90;87.80;;;;;;6191861;23;20143;-81
2021/01/08 16:39:11;;;;;;;9.80;5.80;;;0.90;87.10;;;;;;6193365;23;20444;-82
2021/01/08 16:41:38;;;;;;;9.10;5.20;;;0.90;87.00;;;;;;6221395;23;20001;-82
2021/01/08 16:44:04;;;;;;;11.05;6.10;;;0.90;87.50;;;;;;6191493;23;20008;-82
2021/01/08 16:46:41;;;;;;;9.15;5.18;;;0.90;87.90;;;;;;6193603;23;20404;-83
2021/01/08 16:49:07;;;;;;;10.55;5.85;;;0.90;88.10;;;;;;6218905;23;20346;-83
2021/01/08 16:51:33;;;;;;;10.25;5.82;;;0.90;88.10;;;;;;6192421;23;20016;-82
2021/01/08 16:53:59;;;;;;;11.38;5.65;;;0.80;87.90;;;;;;6219617;23;20387;-83
2021/01/08 16:56:25;;;;;;;13.75;5.95;;;0.80;88.20;;;;;;6193026;23;20005;-82
2021/01/08 16:58:50;;;;;;;12.35;6.35;;;0.80;88.20;;;;;;6190872;23;20076;-82
2021/01/08 17:01:16;;;;;;;9.77;5.40;;;0.90;88.40;;;;;;6220086;23;20001;-84
2021/01/08 17:03:42;;;;;;;12.40;7.13;;;0.90;89.00;;;;;;6199241;23;20008;-84
2021/01/08 17:06:07;;;;;;;11.88;6.15;;;0.90;88.80;;;;;;6194999;23;20016;-84
2021/01/08 17:08:33;;;;;;;11.20;6.13;;;0.90;88.50;;;;;;6194602;23;20009;-85
2021/01/08 17:10:59;;;;;;;10.10;6.80;;;0.90;88.50;;;;;;6193813;23;20008;-85
2021/01/08 17:13:24;;;;;;;10.52;6.10;;;0.90;88.00;;;;;;6220203;23;20041;-85
2021/01/08 17:15:50;;;;;;;9.43;5.95;;;0.90;88.40;;;;;;6195174;23;20004;-84
2021/01/08 17:18:16;;;;;;;9.10;5.93;;;0.90;88.60;;;;;;6194285;23;20005;-84
2021/01/08 17:20:47;;;;;;;15.43;6.68;;;0.90;88.50;;;;;;6220446;23;20325;-84
2021/01/08 17:23:13;;;;;;;12.23;6.70;;;0.90;88.30;;;;;;6224248;23;19996;-86
2021/01/08 17:25:39;;;;;;;15.52;9.50;;;0.90;88.20;;;;;;6219930;23;20119;-85
2021/01/08 17:28:06;;;;;;;17.77;7.82;;;0.90;88.50;;;;;;6194532;23;20000;-85
2021/01/08 17:30:35;;;;;;;12.13;6.75;;;0.90;88.50;;;;;;6222133;23;20000;-85
2021/01/08 17:33:01;;;;;;;11.98;6.57;;;0.90;88.60;;;;;;6222543;23;20090;-85
2021/01/08 17:35:27;;;;;;;12.27;6.53;;;0.90;88.30;;;;;;6197572;23;20607;-85
2021/01/08 17:38:00;;;;;;;11.88;6.53;;;0.80;88.60;;;;;;6197560;23;20005;-85
2021/01/08 17:40:32;;;;;;;10.35;5.97;;;0.80;88.70;;;;;;6223548;23;20031;-86
2021/01/08 17:42:58;;;;;;;14.48;7.28;;;0.80;88.50;;;;;;6198907;23;20011;-85
2021/01/08 17:45:23;;;;;;;13.88;6.68;;;0.80;88.40;;;;;;6198345;23;20001;-84
2021/01/08 17:47:49;;;;;;;12.50;6.80;;;0.70;88.80;;;;;;6192842;23;20011;-85
2021/01/08 17:50:15;;;;;;;11.80;7.35;;;0.70;88.70;;;;;;6221043;23;20000;-85
2021/01/08 17:52:41;;;;;;;20.95;9.45;;;0.70;88.70;;;;;;6193415;23;20023;-82
2021/01/08 17:55:07;;;;;;;11.65;7.18;;;0.70;89.20;;;;;;6192767;23;20011;-83
2021/01/08 17:57:32;;;;;;;12.02;6.85;;;0.70;89.10;;;;;;6220203;23;20011;-84
2021/01/08 18:00:00;;;;;;;11.98;6.43;;;0.70;89.40;;;;;;6192303;23;20009;-83
2021/01/08 18:02:26;;;;;;;12.57;6.72;;;0.70;89.30;;;;;;6192386;23;20000;-84
2021/01/08 18:04:51;;;;;;;13.35;6.88;;;0.60;89.70;;;;;;6219602;23;20032;-84
2021/01/08 18:07:17;;;;;;;16.48;7.53;;;0.60;89.40;;;;;;6192162;23;20005;-83
2021/01/08 18:09:42;;;;;;;15.65;7.00;;;0.60;89.70;;;;;;6191542;23;19997;-84
2021/01/08 18:12:10;;;;;;;12.38;7.13;;;0.60;90.00;;;;;;6219710;23;20043;-83
2021/01/08 18:14:36;;;;;;;17.23;9.18;;;0.60;90.30;;;;;;6194646;23;20005;-83
2021/01/08 18:17:01;;;;;;;13.13;7.18;;;0.60;90.30;;;;;;6221213;23;20008;-83
2021/01/08 18:19:27;;;;;;;14.73;8.00;;;0.60;90.30;;;;;;6194507;23;20012;-83
2021/01/08 18:21:53;;;;;;;14.77;8.20;;;0.50;90.50;;;;;;6221616;23;20005;-82
2021/01/08 18:24:20;;;;;;;16.45;8.38;;;0.50;90.80;;;;;;6193855;23;20004;-83
2021/01/08 18:26:45;;;;;;;13.32;7.35;;;0.50;91.00;;;;;;6194873;23;20452;-83
2021/01/08 18:29:11;;;;;;;13.93;7.55;;;0.40;91.20;;;;;;6192940;23;20024;-82
2021/01/08 18:31:37;;;;;;;16.58;8.73;;;0.40;91.50;;;;;;6236758;22;19997;-83
2021/01/08 18:34:03;;;;;;;14.45;8.52;;;0.40;91.80;;;;;;6233731;23;20017;-82
2021/01/08 18:36:34;;;;;;;10.75;7.18;;;0.40;91.90;;;;;;6197540;23;20004;-84
2021/01/08 18:39:06;;;;;;;14.38;7.97;;;0.30;92.10;;;;;;6222426;23;20011;-82
2021/01/08 18:41:33;;;;;;;14.43;8.48;;;0.30;92.00;;;;;;6195910;23;20007;-83
2021/01/08 18:43:59;;;;;;;16.30;8.45;;;0.30;92.20;;;;;;6192919;23;20013;-83
2021/01/08 18:46:25;;;;;;;13.60;7.88;;;0.30;92.10;;;;;;6193532;23;20011;-83
2021/01/08 18:48:51;;;;;;;11.70;7.50;;;0.30;92.10;;;;;;6219200;23;20467;-84
2021/01/08 18:51:18;;;;;;;16.60;8.90;;;0.30;92.10;;;;;;6193529;23;20001;-84
2021/01/08 18:53:48;;;;;;;13.15;7.00;;;0.30;91.80;;;;;;6193365;23;20012;-84
2021/01/08 18:56:14;;;;;;;14.05;8.38;;;0.40;91.90;;;;;;6197964;23;20004;-85
2021/01/08 18:58:41;;;;;;;16.65;8.82;;;0.50;91.80;;;;;;6193297;23;20433;-84
2021/01/08 19:01:07;;;;;;;12.23;7.22;;;0.50;91.80;;;;;;6195587;23;20004;-83
2021/01/08 19:03:33;;;;;;;22.02;13.10;;;0.50;92.00;;;;;;6208159;23;20019;-83
2021/01/08 19:05:59;;;;;;;19.48;10.73;;;0.50;91.90;;;;;;6236207;23;20004;-83
2021/01/08 19:08:24;;;;;;;17.33;10.18;;;0.50;92.00;;;;;;6194936;23;20024;-83
2021/01/08 19:11:00;;;;;;;20.48;11.10;;;0.50;92.00;;;;;;6192895;23;20000;-84
2021/01/08 19:13:27;;;;;;;22.33;13.05;;;0.50;92.00;;;;;;6191846;23;20012;-84